首页
METAR-TAF:

METAR-TAF

机场 :

沙托鲁, 法国

纬度: 46-51N, 经度: 001-43E, 海拔: 160米

当前天气观测

该预报发布于26分钟前的21:30 UTC
风速5节,风向
温度 4°C
湿度 100%
气压 1019 hPa
能见度10公里或以上
散云层高于4200英尺

METAR: LFLX 292130Z AUTO 18005KT 9999 SCT042 04/04 Q1019 NOSIG

时间: 22:56 (21:56 UTC)

预报

该预报发布于4小时和56分钟前的17:00 UTC
预报有效从29日的 18点(UTC)到 30日的 24点(UTC)
风速8节,风向南转西南
能见度10公里或以上
散云层高于3000英尺
成为
从 30日的 06点(UTC)到 30日的 09点(UTC)
风速15节,风向西南,有时为25节阵风
多云层高于1400英尺
几率 40% :
短暂存在
从 30日的 06点(UTC)到 30日的 14点(UTC)
能見度: 4000
多云层高于600英尺
多云层高于1100英尺, 塔状积云.
成为
从 30日的 22点(UTC)到 30日的 24点(UTC)
多云层高于800英尺

TAF: LFLX 291700Z 2918/3024 20008KT 9999 SCT030 BECMG 3006/3009 23015G25KT BKN014 PROB40 TEMPO 3006/3014 4000 RA BKN006 BKN011TCU BECMG 3022/3024 BKN008

超过4000个机场的气象观测和天气预报(METAR&TAF报告)。

可查询的气象台以黄色和红色小点在地图上表示。

将鼠标移到小点上方,可查看气象台名称。

然后点击查看天气观测和预报。

如需切换地图:点击带黑十字的绿色按钮放大地图;点击带横线的绿色按钮缩小地图;或者点击绿色箭头查看邻近地区的地图。


METAR-TAF: